Time;durP1;ratioP1;P1;durP2;ratioP2;P2;SDS_P1;SDS_P2;PMS_P1;PMS_P2;Temp;Humidity;BMP_temperature;BMP_pressure;BME280_temperature;BME280_humidity;BME280_pressure;Samples;Min_cycle;Max_cycle;Signal;HPM_P1;HPM_P2
2022/06/17 00:00:46;;;;;;;4.07;2.35;;;;;;;22.77;99.66;101240.38;5097916;28;20051;-72
2022/06/17 00:03:33;;;;;;;2.92;2.30;;;;;;;22.95;99.07;101236.63;5095832;28;20035;-71
2022/06/17 00:06:25;;;;;;;3.17;2.40;;;;;;;22.60;100.00;101243.19;5096682;28;20347;-71
2022/06/17 00:09:14;;;;;;;3.70;2.50;;;;;;;22.53;100.00;101231.13;5096884;28;20028;-72
2022/06/17 00:12:00;;;;;;;3.50;2.50;;;;;;;22.64;99.48;101223.34;5096797;28;20028;-72
2022/06/17 00:17:59;;;;;;;2.67;2.30;;;;;;;22.62;99.22;101219.88;5096851;28;20048;-73
2022/06/17 00:20:47;;;;;;;3.22;2.28;;;;;;;22.52;99.16;101226.75;5096269;28;20052;-72
2022/06/17 00:23:32;;;;;;;4.47;2.50;;;;;;;22.31;100.00;101222.63;5095639;28;20422;-72
2022/06/17 00:26:18;;;;;;;3.38;2.40;;;;;;;22.39;100.00;101221.22;5096247;28;20016;-72
2022/06/17 00:29:04;;;;;;;5.57;2.30;;;;;;;22.65;96.76;101220.59;5096596;28;20111;-72
2022/06/17 00:31:50;;;;;;;2.65;2.28;;;;;;;22.81;95.59;101223.19;5095991;28;20020;-72
2022/06/17 00:34:36;;;;;;;3.60;2.42;;;;;;;22.81;96.27;101231.22;5096970;28;20059;-73
2022/06/17 00:37:22;;;;;;;4.15;2.38;;;;;;;22.88;96.33;101222.75;5095971;28;20028;-73
2022/06/17 00:40:18;;;;;;;3.00;2.25;;;;;;;23.06;94.44;101223.44;5096666;28;20028;-72
2022/06/17 00:43:10;;;;;;;4.35;2.28;;;;;;;22.77;97.46;101227.88;5096145;28;20035;-72
2022/06/17 00:46:14;;;;;;;3.75;2.30;;;;;;;22.72;100.00;101224.63;5097746;28;20471;-72
2022/06/17 00:49:06;;;;;;;3.13;2.30;;;;;;;22.48;100.00;101226.06;5096431;28;20032;-72
2022/06/17 00:52:04;;;;;;;6.70;2.53;;;;;;;22.58;100.00;101211.22;5096218;28;20016;-72
2022/06/17 00:55:01;;;;;;;5.32;2.45;;;;;;;22.80;100.00;101209.00;5095697;28;20115;-72
2022/06/17 00:57:47;;;;;;;5.20;2.50;;;;;;;22.86;100.00;101213.97;5095964;28;20024;-73
2022/06/17 01:00:33;;;;;;;3.58;2.17;;;;;;;22.52;100.00;101216.94;5095718;28;20071;-72
2022/06/17 01:03:25;;;;;;;4.18;2.50;;;;;;;22.74;100.00;101213.81;5095643;28;20073;-72
2022/06/17 01:06:15;;;;;;;3.97;2.50;;;;;;;22.53;100.00;101209.75;5095980;28;20422;-71
2022/06/17 01:12:19;;;;;;;4.07;2.33;;;;;;;22.40;100.00;101209.59;5095880;28;20016;-72
2022/06/17 01:15:06;;;;;;;3.05;2.05;;;;;;;22.33;100.00;101208.22;5095702;28;20040;-72
2022/06/17 01:17:53;;;;;;;3.72;2.42;;;;;;;22.44;100.00;101203.13;5095430;28;20046;-72
2022/06/17 01:20:42;;;;;;;4.57;2.33;;;;;;;22.20;100.00;101203.69;5095159;28;20052;-72
2022/06/17 01:23:29;;;;;;;4.72;2.22;;;;;;;21.59;100.00;101206.25;5095218;28;20039;-72
2022/06/17 01:26:16;;;;;;;2.47;2.20;;;;;;;21.84;100.00;101201.31;5095263;28;20121;-72
2022/06/17 01:29:06;;;;;;;3.17;2.50;;;;;;;21.74;100.00;101193.91;5096183;28;20020;-72
2022/06/17 01:31:54;;;;;;;2.88;2.40;;;;;;;21.57;100.00;101192.13;5095172;28;20024;-73
2022/06/17 01:34:40;;;;;;;3.45;2.30;;;;;;;22.14;99.27;101180.03;5095329;28;20078;-72
2022/06/17 01:37:30;;;;;;;5.72;2.45;;;;;;;21.81;100.00;101184.59;5095233;28;20034;-72
2022/06/17 01:40:17;;;;;;;2.55;2.30;;;;;;;21.75;100.00;101193.81;5095739;28;20016;-73
2022/06/17 01:43:08;;;;;;;4.25;2.20;;;;;;;21.97;100.00;101177.44;5093669;28;20028;-72
2022/06/17 01:45:58;;;;;;;2.85;2.17;;;;;;;21.64;100.00;101192.63;5094606;28;20139;-72
2022/06/17 01:48:53;;;;;;;4.78;2.50;;;;;;;21.65;100.00;101191.69;5097488;28;20088;-72
2022/06/17 01:51:42;;;;;;;3.30;2.50;;;;;;;21.35;100.00;101177.38;5100754;28;20021;-72
2022/06/17 01:54:36;;;;;;;2.65;2.40;;;;;;;21.44;100.00;101174.22;5100539;28;20048;-72
2022/06/17 01:57:27;;;;;;;3.95;2.30;;;;;;;21.51;100.00;101172.94;5096009;28;20046;-72
2022/06/17 02:00:20;;;;;;;3.40;2.35;;;;;;;21.87;100.00;101165.59;5094890;28;20103;-71
2022/06/17 02:03:12;;;;;;;3.35;2.42;;;;;;;21.73;100.00;101163.69;5101669;28;20023;-71
2022/06/17 02:06:31;;;;;;;4.13;2.65;;;;;;;21.68;100.00;101175.53;5103061;28;20043;-72
2022/06/17 02:09:17;;;;;;;4.30;2.60;;;;;;;21.92;98.10;101159.03;5099927;28;20497;-71
2022/06/17 02:12:05;;;;;;;3.25;2.20;;;;;;;21.90;97.44;101168.91;5097061;28;20399;-71
2022/06/17 02:14:53;;;;;;;5.85;2.25;;;;;;;22.08;94.50;101157.22;5096265;28;20024;-71
2022/06/17 02:17:42;;;;;;;4.35;2.13;;;;;;;22.09;93.48;101163.38;5096793;28;20058;-72
2022/06/17 02:20:28;;;;;;;4.28;2.40;;;;;;;22.16;93.73;101160.31;5097095;28;20079;-73
2022/06/17 02:23:13;;;;;;;4.25;2.55;;;;;;;21.63;98.61;101169.59;5096307;28;20192;-71
2022/06/17 02:26:01;;;;;;;5.38;2.30;;;;;;;21.56;99.27;101166.41;5097420;28;20355;-72
2022/06/17 02:28:49;;;;;;;5.80;2.55;;;;;;;21.76;98.63;101166.19;5097704;28;20363;-72
2022/06/17 02:31:37;;;;;;;4.40;3.05;;;;;;;21.81;98.22;101169.44;5096830;28;20024;-72
2022/06/17 02:34:23;;;;;;;3.85;3.10;;;;;;;21.81;98.75;101171.25;5098879;28;20044;-73
2022/06/17 02:37:13;;;;;;;4.05;2.58;;;;;;;21.65;98.96;101173.03;5097281;28;20380;-73
2022/06/17 02:40:02;;;;;;;3.25;2.30;;;;;;;21.42;100.00;101176.13;5097850;28;20089;-73
2022/06/17 02:42:48;;;;;;;5.13;2.70;;;;;;;21.22;100.00;101179.84;5096614;28;20046;-72
2022/06/17 02:45:41;;;;;;;10.32;2.80;;;;;;;21.13;100.00;101183.00;5097037;28;20028;-72
2022/06/17 02:48:32;;;;;;;3.45;2.70;;;;;;;21.17;100.00;101175.69;5096423;28;20101;-72
2022/06/17 02:51:18;;;;;;;5.70;2.85;;;;;;;21.16;100.00;101176.66;5097045;28;20116;-72
2022/06/17 02:54:07;;;;;;;3.25;2.47;;;;;;;21.35;100.00;101174.72;5099806;28;20509;-72
2022/06/17 02:56:55;;;;;;;4.00;2.50;;;;;;;21.38;100.00;101175.41;5099671;28;20039;-73
2022/06/17 02:59:48;;;;;;;5.05;2.70;;;;;;;21.39;100.00;101171.81;5101028;28;20020;-72
2022/06/17 03:02:37;;;;;;;3.58;2.50;;;;;;;21.39;100.00;101173.59;5099191;28;20036;-72
2022/06/17 03:05:33;;;;;;;5.43;2.65;;;;;;;21.26;100.00;101181.41;5100527;28;20039;-73
2022/06/17 03:08:26;;;;;;;4.50;2.40;;;;;;;21.35;100.00;101178.25;5100633;28;20360;-72
2022/06/17 03:11:12;;;;;;;4.47;2.50;;;;;;;21.16;100.00;101184.63;5100691;28;20452;-72
2022/06/17 03:14:06;;;;;;;3.53;2.78;;;;;;;21.32;100.00;101181.09;5100745;28;20062;-72
2022/06/17 03:16:55;;;;;;;7.15;2.65;;;;;;;21.24;100.00;101182.44;5101678;28;20467;-72
2022/06/17 03:19:41;;;;;;;6.22;2.88;;;;;;;21.30;100.00;101188.28;5099423;28;20056;-71
2022/06/17 03:22:27;;;;;;;5.53;2.60;;;;;;;20.84;100.00;101188.97;5102305;28;20020;-73
2022/06/17 03:25:22;;;;;;;5.32;2.90;;;;;;;21.24;100.00;101193.97;5102839;28;20028;-72
2022/06/17 03:28:11;;;;;;;8.98;3.13;;;;;;;21.24;100.00;101195.75;5101989;28;20066;-73
2022/06/17 03:31:37;;;;;;;6.05;3.10;;;;;;;21.23;100.00;101202.03;5103749;28;20106;-71
2022/06/17 03:34:32;;;;;;;6.90;3.03;;;;;;;20.79;100.00;101198.16;5098446;28;20035;-73
2022/06/17 03:37:21;;;;;;;5.30;2.90;;;;;;;20.83;100.00;101197.91;5102333;28;20035;-70
2022/06/17 03:40:14;;;;;;;7.85;3.22;;;;;;;21.05;100.00;101206.53;5103802;28;20024;-72
2022/06/17 03:43:15;;;;;;;7.43;3.17;;;;;;;20.77;100.00;101208.03;5101667;28;20368;-71
2022/06/17 03:46:04;;;;;;;5.65;3.20;;;;;;;21.02;100.00;101206.69;5102694;28;20028;-72
2022/06/17 03:49:09;;;;;;;11.48;3.50;;;;;;;21.24;100.00;101209.94;5102272;28;20085;-73
2022/06/17 03:52:00;;;;;;;6.22;3.33;;;;;;;21.19;100.00;101206.69;5102196;28;20050;-73
2022/06/17 03:54:46;;;;;;;8.07;3.28;;;;;;;21.13;100.00;101214.97;5099607;28;20361;-72
2022/06/17 03:57:32;;;;;;;7.03;3.03;;;;;;;21.37;100.00;101211.00;5099723;28;20091;-71
2022/06/17 04:00:29;;;;;;;8.45;3.30;;;;;;;21.50;100.00;101214.72;5100678;28;20038;-72
2022/06/17 04:03:19;;;;;;;6.53;2.72;;;;;;;21.46;100.00;101218.50;5100550;28;20032;-70
2022/06/17 04:06:10;;;;;;;3.92;2.78;;;;;;;21.71;100.00;101221.63;5096151;28;20093;-71
2022/06/17 04:09:05;;;;;;;2.95;2.60;;;;;;;21.27;100.00;101215.13;5097517;28;20379;-70
2022/06/17 04:12:28;;;;;;;3.42;2.80;;;;;;;21.66;100.00;101222.78;5098599;28;20038;-71
2022/06/17 04:15:13;;;;;;;7.55;3.13;;;;;;;21.56;100.00;101225.06;5038176;28;20033;-72
2022/06/17 04:17:59;;;;;;;7.30;3.13;;;;;;;21.19;100.00;101221.81;5101337;28;20441;-73
2022/06/17 04:20:48;;;;;;;7.35;2.97;;;;;;;21.47;100.00;101220.25;5102984;28;20104;-72
2022/06/17 04:23:36;;;;;;;5.40;2.60;;;;;;;21.56;100.00;101225.06;5105055;28;20060;-72
2022/06/17 04:26:32;;;;;;;9.90;3.42;;;;;;;21.63;100.00;101231.81;5103232;28;20089;-71
2022/06/17 04:29:37;;;;;;;5.50;3.30;;;;;;;21.78;100.00;101228.31;5106474;28;20024;-72
2022/06/17 04:32:33;;;;;;;5.35;3.53;;;;;;;21.52;100.00;101227.97;5103517;28;20442;-72
2022/06/17 04:35:19;;;;;;;6.93;3.63;;;;;;;21.34;100.00;101229.81;5098403;28;20028;-73
2022/06/17 04:38:05;;;;;;;5.68;3.00;;;;;;;21.78;100.00;101228.31;5099801;28;20511;-71
2022/06/17 04:40:55;;;;;;;6.50;3.35;;;;;;;21.66;100.00;101225.44;5105077;28;20024;-78
2022/06/17 04:43:47;;;;;;;6.45;3.13;;;;;;;21.54;100.00;101224.28;5099037;28;20054;-79
2022/06/17 04:46:44;;;;;;;6.90;3.15;;;;;;;21.39;100.00;101217.13;5098039;28;20024;-78
2022/06/17 04:49:33;;;;;;;3.25;2.88;;;;;;;21.32;100.00;101212.19;5097367;28;20089;-79
2022/06/17 04:52:25;;;;;;;9.40;3.13;;;;;;;22.13;100.00;101220.97;5096910;28;20031;-80
2022/06/17 04:55:23;;;;;;;6.13;3.63;;;;;;;22.08;100.00;101223.06;5097488;28;20078;-79
2022/06/17 04:58:16;;;;;;;7.18;3.90;;;;;;;22.12;100.00;101220.16;5098207;28;20119;-79
2022/06/17 05:01:02;;;;;;;8.95;4.97;;;;;;;22.36;100.00;101221.41;5103768;28;20093;-79
2022/06/17 05:03:48;;;;;;;7.38;3.05;;;;;;;22.31;100.00;101227.97;5113105;28;20032;-79
2022/06/17 05:06:34;;;;;;;5.65;3.60;;;;;;;22.31;100.00;101212.78;5114007;28;20023;-78
2022/06/17 05:09:23;;;;;;;7.97;4.50;;;;;;;22.38;100.00;101221.31;5113442;28;20394;-79
2022/06/17 05:12:21;;;;;;;7.75;3.53;;;;;;;22.12;100.00;101219.28;5114688;28;20075;-78
2022/06/17 05:15:13;;;;;;;4.78;3.20;;;;;;;22.25;100.00;101229.16;5112542;28;20019;-78
2022/06/17 05:17:59;;;;;;;6.35;4.07;;;;;;;22.45;100.00;101228.88;5114452;28;20023;-78
2022/06/17 05:20:45;;;;;;;9.55;4.43;;;;;;;22.72;100.00;101218.41;5112030;28;20040;-78
2022/06/17 05:23:31;;;;;;;6.45;3.70;;;;;;;22.62;100.00;101218.09;5113064;28;20024;-78
2022/06/17 05:26:17;;;;;;;12.05;3.92;;;;;;;22.77;100.00;101227.00;5106096;28;20024;-78
2022/06/17 05:29:03;;;;;;;7.15;3.22;;;;;;;22.73;100.00;101217.44;5104901;28;20035;-79
2022/06/17 05:31:49;;;;;;;8.88;3.50;;;;;;;23.19;99.07;101229.78;5104833;28;20024;-78
2022/06/17 05:34:35;;;;;;;7.00;2.97;;;;;;;23.07;100.00;101223.34;5097174;28;20051;-78
2022/06/17 05:37:21;;;;;;;8.60;3.10;;;;;;;23.37;98.11;101220.63;5097429;28;20024;-79
2022/06/17 05:40:08;;;;;;;4.32;2.97;;;;;;;23.45;97.82;101218.34;5097135;28;20028;-79
2022/06/17 05:42:54;;;;;;;9.23;3.33;;;;;;;23.50;98.01;101210.88;5095461;28;20039;-79
2022/06/17 05:45:40;;;;;;;8.40;3.17;;;;;;;23.61;97.57;101210.19;5095922;28;20467;-80
2022/06/17 05:48:26;;;;;;;9.50;3.05;;;;;;;23.66;98.77;101213.47;5095360;28;20028;-80
2022/06/17 05:51:12;;;;;;;9.88;3.60;;;;;;;23.97;96.53;101199.84;5095674;28;20020;-80
2022/06/17 05:53:57;;;;;;;8.82;3.63;;;;;;;23.76;95.58;101217.28;5095918;28;20110;-78
2022/06/17 05:56:44;;;;;;;5.28;3.33;;;;;;;24.01;96.78;101215.63;5095187;28;20024;-80
2022/06/17 05:59:30;;;;;;;10.38;4.90;;;;;;;23.65;97.70;101214.41;5095639;28;20032;-79
2022/06/17 06:02:15;;;;;;;5.47;3.20;;;;;;;23.12;100.00;101213.22;5094616;28;20042;-79
2022/06/17 06:05:02;;;;;;;13.07;3.40;;;;;;;23.62;100.00;101203.91;5095181;28;20102;-79
2022/06/17 06:07:48;;;;;;;11.38;3.95;;;;;;;24.02;99.18;101211.16;5095036;28;20107;-78
2022/06/17 06:10:35;;;;;;;7.47;4.47;;;;;;;24.08;100.00;101208.06;5093832;28;20059;-78
2022/06/17 06:13:22;;;;;;;10.65;6.28;;;;;;;24.34;97.29;101205.38;5094994;28;20081;-79
2022/06/17 06:16:09;;;;;;;14.98;4.00;;;;;;;24.65;95.96;101198.84;5095167;28;20456;-79
2022/06/17 06:18:55;;;;;;;8.57;3.20;;;;;;;24.23;99.42;101193.66;5095131;28;20028;-79
2022/06/17 06:21:41;;;;;;;12.27;3.30;;;;;;;24.19;99.17;101197.50;5094332;28;20047;-79
2022/06/17 06:24:27;;;;;;;10.85;4.07;;;;;;;24.91;97.24;101189.91;5094844;28;20028;-80
2022/06/17 06:27:12;;;;;;;11.95;9.07;;;;;;;24.95;95.36;101186.88;5094957;28;20063;-79
2022/06/17 06:29:58;;;;;;;13.13;4.10;;;;;;;24.88;95.20;101190.09;5094548;28;20360;-79
2022/06/17 06:32:57;;;;;;;6.88;3.15;;;;;;;24.65;96.76;101185.44;5095309;28;20120;-76
2022/06/17 06:35:43;;;;;;;4.78;3.30;;;;;;;25.16;92.91;101188.06;5095754;28;20054;-77
2022/06/17 06:38:28;;;;;;;14.75;3.88;;;;;;;24.83;97.86;101184.19;5094655;28;20484;-78
2022/06/17 06:41:17;;;;;;;5.13;3.30;;;;;;;25.14;92.22;101186.44;5095226;28;20070;-80
2022/06/17 06:44:04;;;;;;;15.63;4.47;;;;;;;25.49;91.12;101184.84;5094666;28;20031;-79
2022/06/17 06:46:49;;;;;;;6.55;3.80;;;;;;;25.72;92.51;101181.38;5094510;28;20098;-80
2022/06/17 06:49:35;;;;;;;9.90;3.67;;;;;;;25.73;92.12;101183.94;5094786;28;20024;-79
2022/06/17 06:52:21;;;;;;;7.22;3.92;;;;;;;25.98;88.83;101175.84;5094423;28;20089;-80
2022/06/17 06:55:07;;;;;;;7.75;3.58;;;;;;;25.94;89.16;101177.03;5094941;28;20028;-79
2022/06/17 06:57:56;;;;;;;4.68;3.03;;;;;;;25.87;91.18;101185.59;5095796;28;20050;-79
2022/06/17 07:00:45;;;;;;;8.88;3.28;;;;;;;26.01;90.07;101180.13;5094422;28;20024;-79
2022/06/17 07:03:31;;;;;;;7.90;3.72;;;;;;;26.20;88.63;101173.25;5094523;28;20020;-78
2022/06/17 07:06:16;;;;;;;4.22;3.15;;;;;;;25.86;88.04;101179.41;5094741;28;20039;-80
2022/06/17 07:09:03;;;;;;;10.45;5.00;;;;;;;25.65;91.79;101180.09;5094270;28;20051;-78
2022/06/17 07:11:49;;;;;;;11.15;4.32;;;;;;;26.14;89.21;101167.50;5094144;28;20052;-78
2022/06/17 07:14:35;;;;;;;4.78;3.50;;;;;;;26.58;86.62;101179.34;5094506;28;20024;-79
2022/06/17 07:17:20;;;;;;;6.30;3.33;;;;;;;26.11;86.92;101173.09;5095208;28;20086;-79
2022/06/17 07:20:07;;;;;;;8.98;3.50;;;;;;;26.44;84.83;101174.09;5093895;28;20052;-80
2022/06/17 07:22:53;;;;;;;13.25;3.55;;;;;;;26.28;83.88;101175.41;5094694;28;20351;-79
2022/06/17 07:25:40;;;;;;;6.28;3.33;;;;;;;27.03;80.67;101170.38;5094277;28;20058;-79
2022/06/17 07:28:26;;;;;;;7.07;3.25;;;;;;;27.40;78.55;101173.72;5094250;28;20020;-80
2022/06/17 07:31:13;;;;;;;12.40;6.55;;;;;;;27.18;81.28;101168.31;5094150;28;20032;-79
2022/06/17 07:33:59;;;;;;;4.50;2.80;;;;;;;27.83;76.02;101177.41;5095598;28;20032;-76
2022/06/17 07:39:58;;;;;;;4.53;2.92;;;;;;;27.60;68.79;101178.38;5093987;28;20023;-75
2022/06/17 07:42:44;;;;;;;6.15;3.17;;;;;;;28.09;67.62;101175.25;5097371;28;20368;-73
2022/06/17 07:45:32;;;;;;;4.25;2.92;;;;;;;27.98;67.55;101181.53;5097929;28;20020;-73
2022/06/17 07:48:18;;;;;;;6.13;3.67;;;;;;;27.93;66.68;101177.50;5096654;28;20102;-73
2022/06/17 07:51:06;;;;;;;5.90;3.28;;;;;;;27.58;69.16;101174.09;5100875;28;20391;-77
2022/06/17 07:53:52;;;;;;;4.30;2.97;;;;;;;27.97;67.87;101179.84;5101410;28;20420;-75
2022/06/17 07:56:38;;;;;;;3.47;2.90;;;;;;;28.34;66.13;101174.94;5102259;28;20066;-75
2022/06/17 07:59:24;;;;;;;4.18;3.40;;;;;;;28.22;69.56;101173.25;5100419;28;20028;-76
2022/06/17 08:02:09;;;;;;;3.53;3.22;;;;;;;28.56;64.35;101173.00;5097682;28;20038;-73
2022/06/17 08:04:55;;;;;;;6.65;3.05;;;;;;;28.62;62.73;101167.13;5098856;28;20364;-77
2022/06/17 08:07:41;;;;;;;5.82;4.05;;;;;;;28.54;64.19;101174.13;5102951;28;20072;-77
2022/06/17 08:10:28;;;;;;;21.50;14.05;;;;;;;28.38;68.45;101171.84;5100937;28;20091;-77
2022/06/17 08:13:14;;;;;;;4.80;4.30;;;;;;;28.91;67.25;101167.28;5100025;28;20024;-76
2022/06/17 08:16:05;;;;;;;5.45;3.45;;;;;;;29.15;67.59;101173.28;5098483;28;20039;-77
2022/06/17 08:18:52;;;;;;;3.97;3.30;;;;;;;29.38;64.13;101177.53;5097757;28;20475;-77
2022/06/17 08:21:37;;;;;;;6.75;6.07;;;;;;;29.04;63.08;101181.47;5097384;28;20131;-77
2022/06/17 08:24:23;;;;;;;5.03;4.25;;;;;;;29.62;64.14;101180.78;5097708;28;20028;-77
2022/06/17 08:27:09;;;;;;;4.95;3.45;;;;;;;28.87;63.29;101168.53;5097425;28;20405;-78
2022/06/17 08:29:55;;;;;;;5.38;3.22;;;;;;;28.88;60.52;101165.72;5096527;28;20028;-77
2022/06/17 08:32:47;;;;;;;7.72;4.70;;;;;;;29.64;57.98;101176.09;5096890;28;20031;-77
2022/06/17 08:35:35;;;;;;;4.72;3.85;;;;;;;29.95;51.62;101170.50;5097195;28;20401;-76
2022/06/17 08:38:26;;;;;;;8.43;3.95;;;;;;;29.63;54.14;101172.56;5097251;28;20380;-78
2022/06/17 08:41:33;;;;;;;4.80;3.28;;;;;;;29.55;54.16;101175.06;5098083;28;20028;-78
2022/06/17 08:44:19;;;;;;;9.95;4.00;;;;;;;29.77;54.75;101174.88;5096960;28;20028;-77
2022/06/17 08:47:30;;;;;;;4.75;3.20;;;;;;;30.23;54.63;101171.56;5097190;28;20028;-77
2022/06/17 08:50:28;;;;;;;8.63;3.50;;;;;;;29.18;63.81;101164.94;5096716;28;20035;-77
2022/06/17 08:53:22;;;;;;;5.32;3.30;;;;;;;29.83;63.00;101158.13;5097159;28;20024;-78
2022/06/17 08:56:34;;;;;;;5.32;3.50;;;;;;;29.10;66.20;101162.91;5097754;28;20132;-78
2022/06/17 08:59:38;;;;;;;5.28;3.90;;;;;;;29.71;62.94;101161.06;5097898;28;20024;-77
2022/06/17 09:02:36;;;;;;;5.68;5.00;;;;;;;30.45;58.15;101153.22;5096132;28;20028;-78
2022/06/17 09:05:40;;;;;;;8.15;4.32;;;;;;;29.56;58.24;101154.28;5097161;28;20024;-77
2022/06/17 09:08:56;;;;;;;7.07;3.50;;;;;;;29.58;58.98;101149.66;5096807;28;20048;-77
2022/06/17 09:12:10;;;;;;;7.47;3.90;;;;;;;30.38;58.52;101141.25;5097353;28;20027;-78
2022/06/17 09:15:28;;;;;;;4.75;3.80;;;;;;;30.56;60.88;101147.66;5096042;28;20418;-78
2022/06/17 09:18:29;;;;;;;4.68;3.10;;;;;;;30.62;51.96;101152.47;5096241;28;20057;-76
2022/06/17 09:21:21;;;;;;;8.18;4.65;;;;;;;31.02;51.44;101149.59;5095620;28;20044;-75
2022/06/17 09:24:11;;;;;;;7.22;3.42;;;;;;;31.21;45.52;101152.22;5095583;28;20123;-77
2022/06/17 09:27:06;;;;;;;3.88;3.58;;;;;;;30.91;44.68;101145.19;5095918;28;20028;-76
2022/06/17 09:30:00;;;;;;;4.72;3.47;;;;;;;31.21;45.08;101144.09;5096050;28;20132;-76
2022/06/17 09:32:58;;;;;;;5.78;3.97;;;;;;;30.81;48.54;101136.25;5095463;28;20020;-75
2022/06/17 09:35:48;;;;;;;3.97;3.45;;;;;;;30.68;50.64;101140.22;5096104;28;20024;-76
2022/06/17 09:38:40;;;;;;;6.75;3.30;;;;;;;30.91;45.38;101131.66;5095718;28;20016;-76
2022/06/17 09:41:35;;;;;;;3.40;2.95;;;;;;;31.21;43.49;101136.84;5095746;28;20020;-72
2022/06/17 09:44:29;;;;;;;5.72;3.33;;;;;;;30.78;44.92;101123.00;5095063;28;20092;-73
2022/06/17 09:47:39;;;;;;;3.88;3.20;;;;;;;30.93;44.89;101115.28;5094967;28;20020;-73
2022/06/17 09:50:43;;;;;;;3.88;3.30;;;;;;;30.90;44.88;101123.72;5095379;28;20107;-74
2022/06/17 09:53:39;;;;;;;3.38;2.97;;;;;;;30.81;39.87;101114.59;5095379;28;20020;-73
2022/06/17 09:56:51;;;;;;;3.30;3.00;;;;;;;30.53;39.92;101117.31;5094996;28;20024;-74
2022/06/17 10:00:03;;;;;;;6.75;4.15;;;;;;;30.51;39.58;101109.38;5095476;28;20413;-73
2022/06/17 10:03:15;;;;;;;3.42;3.13;;;;;;;31.16;40.44;101111.22;5094757;28;20024;-73
2022/06/17 10:06:28;;;;;;;5.03;3.00;;;;;;;31.06;38.17;101111.25;5095481;28;20463;-73
2022/06/17 10:09:37;;;;;;;4.50;3.10;;;;;;;30.82;35.75;101105.47;5095211;28;20046;-73
2022/06/17 10:12:48;;;;;;;3.17;2.60;;;;;;;31.03;35.47;101100.69;5094214;28;20107;-72
2022/06/17 10:15:39;;;;;;;3.53;3.17;;;;;;;30.83;36.29;101107.19;5095099;28;20073;-72
2022/06/17 10:18:43;;;;;;;4.32;3.10;;;;;;;30.84;35.92;101097.22;5095693;28;20356;-73
2022/06/17 10:21:44;;;;;;;22.00;12.35;;;;;;;31.28;36.12;101091.09;5094500;28;20503;-73
2022/06/17 10:24:43;;;;;;;15.93;12.32;;;;;;;31.07;38.45;101090.44;5095271;28;20024;-74
2022/06/17 10:28:26;;;;;;;4.10;3.30;;;;;;;30.76;40.69;101088.97;5133661;27;20378;-73
2022/06/17 10:31:24;;;;;;;5.90;3.60;;;;;;;30.95;38.07;101095.16;5101812;27;20046;-76
2022/06/17 10:34:12;;;;;;;6.40;3.22;;;;;;;31.28;37.30;101089.25;5132985;28;20091;-73
2022/06/17 10:37:01;;;;;;;3.75;3.33;;;;;;;31.28;36.97;101089.25;5131331;28;20019;-72
2022/06/17 10:39:47;;;;;;;3.80;3.13;;;;;;;30.96;37.26;101085.22;5128494;28;20027;-73
2022/06/17 10:42:34;;;;;;;4.28;3.40;;;;;;;31.49;38.69;101085.44;5124893;28;20410;-72
2022/06/17 10:45:19;;;;;;;4.97;3.70;;;;;;;31.24;37.22;101081.56;5130266;28;20025;-73
2022/06/17 10:48:34;;;;;;;5.25;3.55;;;;;;;31.20;37.85;101077.41;5145943;28;20038;-73
2022/06/17 10:51:20;;;;;;;3.80;3.35;;;;;;;31.13;39.38;101073.59;5165783;27;20023;-78
2022/06/17 10:54:15;;;;;;;4.85;3.30;;;;;;;31.03;40.04;101076.34;5145373;27;20367;-74
2022/06/17 10:57:05;;;;;;;6.88;3.80;;;;;;;31.62;38.80;101072.38;5160872;27;20023;-75
2022/06/17 10:59:51;;;;;;;4.00;3.60;;;;;;;31.74;36.59;101073.84;5150482;27;20030;-78
2022/06/17 11:02:37;;;;;;;4.15;3.47;;;;;;;31.60;34.70;101075.22;5166299;27;20053;-76
2022/06/17 11:05:31;;;;;;;4.72;3.60;;;;;;;31.95;35.31;101071.72;5163963;27;20019;-77
2022/06/17 11:08:21;;;;;;;5.68;3.50;;;;;;;32.15;34.15;101078.69;5154733;27;20037;-77
2022/06/17 11:14:41;;;;;;;9.18;3.50;;;;;;;31.39;35.04;101067.34;5154618;27;20023;-77
2022/06/17 11:17:34;;;;;;;4.95;4.03;;;;;;;32.24;35.81;101062.34;5154319;27;20041;-77
2022/06/17 11:20:26;;;;;;;5.20;3.92;;;;;;;32.47;36.01;101054.59;5155729;27;20027;-76
2022/06/17 11:23:26;;;;;;;5.30;3.40;;;;;;;32.03;35.53;101055.53;5169609;27;20027;-77
2022/06/17 11:26:16;;;;;;;5.68;3.55;;;;;;;32.23;34.13;101049.78;5169241;27;20114;-78
2022/06/17 11:29:21;;;;;;;4.70;4.00;;;;;;;32.19;33.84;101052.97;5170794;27;20027;-79
2022/06/17 11:32:19;;;;;;;12.07;6.93;;;;;;;32.27;33.98;101044.91;5170002;27;20378;-77
2022/06/17 11:35:29;;;;;;;6.95;4.60;;;;;;;31.39;35.47;101040.28;5167871;27;20035;-77
2022/06/17 11:38:17;;;;;;;5.07;4.07;;;;;;;32.01;35.40;101038.59;5161672;27;20054;-78
2022/06/17 11:41:03;;;;;;;4.38;3.85;;;;;;;32.39;34.73;101025.53;5158529;27;20035;-78
2022/06/17 11:43:50;;;;;;;4.30;3.63;;;;;;;32.87;34.42;101038.59;5141346;27;20030;-78
2022/06/17 11:46:49;;;;;;;4.95;4.43;;;;;;;32.56;33.76;101021.91;5152175;27;20448;-78
2022/06/17 11:49:39;;;;;;;5.00;3.88;;;;;;;33.05;33.53;101029.34;5124410;27;20054;-77
2022/06/17 11:52:35;;;;;;;4.22;3.40;;;;;;;32.80;31.51;101024.78;5125643;27;20113;-78
2022/06/17 11:55:27;;;;;;;8.00;4.10;;;;;;;32.91;31.92;101026.38;5124735;27;20355;-77
2022/06/17 11:58:17;;;;;;;4.80;3.90;;;;;;;32.79;33.18;101028.47;5141641;27;20027;-76
2022/06/17 12:01:15;;;;;;;5.75;3.83;;;;;;;32.79;33.34;101020.34;5124129;27;20371;-76
2022/06/17 12:04:02;;;;;;;6.53;3.75;;;;;;;32.50;33.04;101017.13;5139211;27;20034;-74
2022/06/17 12:06:48;;;;;;;4.93;3.60;;;;;;;32.77;32.97;101016.94;5140995;27;20027;-74
2022/06/17 12:09:40;;;;;;;4.53;3.90;;;;;;;32.27;33.20;101010.50;5142954;27;20090;-73
2022/06/17 12:12:27;;;;;;;4.85;3.70;;;;;;;32.65;31.45;101006.50;5124059;27;20035;-74
2022/06/17 12:15:28;;;;;;;4.57;3.78;;;;;;;32.49;31.77;101009.13;5121498;27;20029;-71
2022/06/17 12:18:30;;;;;;;6.72;3.88;;;;;;;32.58;32.82;100991.91;5137438;27;20035;-75
2022/06/17 12:21:45;;;;;;;4.22;3.60;;;;;;;32.18;33.50;100999.75;5137211;27;20030;-75
2022/06/17 12:24:33;;;;;;;5.28;3.85;;;;;;;32.72;31.45;100994.88;5137613;27;20367;-77
2022/06/17 12:27:41;;;;;;;3.88;3.47;;;;;;;31.50;32.65;100987.72;5135873;27;20054;-71
2022/06/17 12:30:44;;;;;;;5.45;3.70;;;;;;;32.71;31.51;100987.72;5137752;27;20055;-72
2022/06/17 12:34:04;;;;;;;6.75;3.55;;;;;;;32.87;31.55;100987.00;5136673;27;20038;-72
2022/06/17 12:36:56;;;;;;;4.43;3.80;;;;;;;32.93;31.67;100983.63;5136826;27;20114;-73
2022/06/17 12:39:56;;;;;;;5.20;3.47;;;;;;;32.89;31.59;100980.38;5136605;27;20418;-74
2022/06/17 12:43:33;;;;;;;4.57;3.92;;;;;;;33.13;30.88;100976.91;5137055;27;20038;-73
2022/06/17 12:46:45;;;;;;;5.10;3.90;;;;;;;32.81;30.68;100972.22;5095508;27;20031;-73
2022/06/17 12:53:23;;;;;;;5.55;4.90;;;;;;;32.89;31.73;100968.66;5137569;27;20386;-73
2022/06/17 12:56:25;;;;;;;23.42;21.13;;;;;;;32.82;33.21;100973.06;5120616;27;20027;-73
2022/06/17 12:59:23;;;;;;;4.80;4.30;;;;;;;32.86;32.56;100964.41;5122995;27;20023;-72
2022/06/17 13:02:17;;;;;;;5.88;3.90;;;;;;;32.96;31.49;100965.16;5120995;27;20485;-73
2022/06/17 13:05:33;;;;;;;4.10;3.70;;;;;;;32.90;31.41;100964.97;5136810;27;20030;-73
2022/06/17 13:08:37;;;;;;;4.10;3.70;;;;;;;32.12;33.36;100962.41;5120622;27;20027;-72
2022/06/17 13:11:39;;;;;;;4.03;3.55;;;;;;;32.54;33.25;100952.53;5121440;27;20023;-72
2022/06/17 13:15:05;;;;;;;3.67;3.38;;;;;;;33.11;32.91;100946.34;5136405;27;20027;-71
2022/06/17 13:18:02;;;;;;;7.88;4.13;;;;;;;32.31;33.17;100948.66;5131776;27;20118;-72
2022/06/17 13:20:56;;;;;;;4.25;3.47;;;;;;;32.41;33.91;100943.97;5120991;27;20027;-73
2022/06/17 13:24:02;;;;;;;4.85;3.88;;;;;;;33.00;33.06;100930.38;5120759;27;20016;-73
2022/06/17 13:27:00;;;;;;;9.90;7.22;;;;;;;33.20;33.75;100939.91;5138272;27;20043;-72
2022/06/17 13:29:50;;;;;;;6.03;4.45;;;;;;;32.19;34.02;100937.22;5125834;27;20061;-72
2022/06/17 13:32:41;;;;;;;4.70;4.20;;;;;;;32.89;33.04;100931.50;5144624;27;20079;-72
2022/06/17 13:35:38;;;;;;;4.35;3.55;;;;;;;32.38;31.54;100928.88;5138055;27;20019;-70